createdAt,value
2022-10-22T00:01:38.992Z,4.70
2022-10-22T00:04:07.001Z,5.60
2022-10-22T00:06:35.122Z,5.53
2022-10-22T00:09:03.189Z,5.07
2022-10-22T00:11:31.320Z,5.43
2022-10-22T00:13:59.296Z,5.20
2022-10-22T00:16:28.653Z,4.30
2022-10-22T00:18:56.637Z,5.20
2022-10-22T00:21:25.767Z,5.77
2022-10-22T00:23:53.719Z,4.97
2022-10-22T00:26:21.662Z,6.80
2022-10-22T00:28:49.606Z,5.23
2022-10-22T00:31:19.211Z,5.57
2022-10-22T00:33:48.745Z,7.37
2022-10-22T00:36:16.764Z,6.17
2022-10-22T00:38:44.723Z,4.93
2022-10-22T00:41:13.050Z,6.63
2022-10-22T00:43:58.032Z,5.47
2022-10-22T00:46:25.996Z,5.83
2022-10-22T00:48:55.333Z,5.03
2022-10-22T00:51:23.679Z,5.07
2022-10-22T00:53:55.085Z,4.93
2022-10-22T00:56:23.304Z,5.03
2022-10-22T00:58:53.347Z,5.90
2022-10-22T01:01:23.099Z,6.03
2022-10-22T01:03:51.052Z,4.90
2022-10-22T01:06:23.785Z,5.20
2022-10-22T01:08:56.002Z,4.80
2022-10-22T01:11:26.859Z,5.37
2022-10-22T01:13:59.289Z,5.40
2022-10-22T01:16:31.624Z,4.97
2022-10-22T01:19:01.817Z,5.77
2022-10-22T01:21:32.826Z,5.63
2022-10-22T01:24:16.849Z,6.33
2022-10-22T01:26:55.504Z,5.87
2022-10-22T01:29:26.405Z,5.40
2022-10-22T01:31:56.475Z,6.20
2022-10-22T01:34:24.541Z,5.60
2022-10-22T01:36:52.526Z,5.47
2022-10-22T01:39:20.490Z,4.67
2022-10-22T01:41:48.511Z,5.13
2022-10-22T01:44:26.998Z,5.20
2022-10-22T01:46:56.067Z,5.23
2022-10-22T01:49:26.247Z,5.50
2022-10-22T01:51:57.999Z,4.17
2022-10-22T01:54:30.891Z,3.90
2022-10-22T01:57:04.809Z,4.20
2022-10-22T01:59:39.959Z,5.40
2022-10-22T02:02:12.314Z,4.83
2022-10-22T02:04:42.721Z,4.80
2022-10-22T02:07:11.898Z,5.53
2022-10-22T02:09:39.882Z,4.43
2022-10-22T02:12:08.258Z,5.00
2022-10-22T02:14:39.625Z,4.50
2022-10-22T02:17:07.703Z,4.40
2022-10-22T02:19:38.213Z,5.70
2022-10-22T02:22:06.202Z,5.30
2022-10-22T02:24:34.169Z,6.03
2022-10-22T02:27:04.226Z,6.20
2022-10-22T02:29:34.602Z,6.47
2022-10-22T02:32:04.431Z,6.67
2022-10-22T02:34:32.764Z,5.97
2022-10-22T02:37:01.145Z,5.60
2022-10-22T02:39:29.671Z,5.50
2022-10-22T02:41:58.099Z,6.00
2022-10-22T02:44:26.147Z,5.30
2022-10-22T02:46:54.093Z,5.30
2022-10-22T02:49:23.440Z,5.47
2022-10-22T02:51:51.407Z,5.00
2022-10-22T02:54:19.426Z,6.03
2022-10-22T02:56:47.372Z,5.37
2022-10-22T02:59:15.317Z,5.20
2022-10-22T03:01:43.281Z,5.27
2022-10-22T03:04:11.207Z,5.87
2022-10-22T03:06:43.845Z,5.00
2022-10-22T03:09:11.828Z,6.20
2022-10-22T03:11:39.827Z,4.87
2022-10-22T03:14:07.796Z,5.07
2022-10-22T03:16:35.770Z,4.57
2022-10-22T03:19:03.748Z,4.30
2022-10-22T03:21:33.454Z,5.37
2022-10-22T03:24:03.337Z,4.30
2022-10-22T03:26:31.268Z,5.10
2022-10-22T03:29:00.883Z,5.87
2022-10-22T03:31:28.810Z,4.67
2022-10-22T03:33:56.778Z,5.70
2022-10-22T03:36:24.734Z,4.73
2022-10-22T03:38:52.789Z,5.50
2022-10-22T03:41:22.109Z,4.50
2022-10-22T03:43:52.985Z,4.90
2022-10-22T03:46:20.997Z,4.80
2022-10-22T03:48:48.937Z,6.87
2022-10-22T03:51:16.869Z,5.00
2022-10-22T03:53:44.844Z,4.97
2022-10-22T03:56:12.942Z,5.17
2022-10-22T03:58:42.366Z,4.73
2022-10-22T04:01:11.300Z,5.40
2022-10-22T04:03:39.378Z,5.10
2022-10-22T04:06:08.398Z,7.97
2022-10-22T04:08:36.388Z,6.70
2022-10-22T04:11:04.365Z,6.60
2022-10-22T04:13:32.331Z,5.80
2022-10-22T04:16:09.914Z,4.80
2022-10-22T04:18:37.914Z,6.00
2022-10-22T04:21:06.222Z,4.30
2022-10-22T04:23:34.215Z,4.13
2022-10-22T04:26:02.675Z,5.20
2022-10-22T04:28:30.622Z,6.40
2022-10-22T04:30:58.618Z,6.77
2022-10-22T04:33:28.022Z,7.40
2022-10-22T04:35:55.991Z,6.50
2022-10-22T04:38:23.959Z,4.80
2022-10-22T04:40:51.928Z,6.00
2022-10-22T04:43:19.906Z,5.70
2022-10-22T04:45:47.928Z,7.20
2022-10-22T04:48:15.864Z,6.23
2022-10-22T04:50:45.210Z,5.57
2022-10-22T04:53:13.132Z,5.37
2022-10-22T04:55:41.149Z,5.50
2022-10-22T04:58:09.128Z,5.90
2022-10-22T05:00:37.229Z,4.83
2022-10-22T05:03:05.268Z,5.10
2022-10-22T05:05:33.959Z,6.47
2022-10-22T05:08:03.348Z,5.00
2022-10-22T05:10:31.286Z,5.83
2022-10-22T05:12:59.220Z,4.87
2022-10-22T05:15:27.211Z,5.83
2022-10-22T05:17:55.159Z,5.17
2022-10-22T05:20:23.134Z,6.00
2022-10-22T05:22:51.038Z,5.30
2022-10-22T05:25:20.352Z,6.03
2022-10-22T05:27:50.486Z,4.67
2022-10-22T05:30:18.447Z,5.27
2022-10-22T05:32:46.394Z,4.43
2022-10-22T05:35:14.431Z,5.50
2022-10-22T05:37:42.784Z,4.87
2022-10-22T05:40:26.415Z,4.13
2022-10-22T05:42:56.445Z,4.93
2022-10-22T05:45:24.431Z,4.40
2022-10-22T05:47:52.407Z,4.23
2022-10-22T05:50:20.466Z,4.57
2022-10-22T05:52:48.447Z,4.23
2022-10-22T05:55:16.610Z,3.07
2022-10-22T05:57:44.591Z,3.80
2022-10-22T06:00:16.551Z,3.67
2022-10-22T06:02:45.033Z,3.60
2022-10-22T06:05:13.010Z,3.13
2022-10-22T06:07:41.083Z,2.97
2022-10-22T06:10:11.113Z,2.83
2022-10-22T06:12:39.235Z,3.20
2022-10-22T06:15:08.776Z,3.40
2022-10-22T06:17:38.073Z,3.00
2022-10-22T06:20:06.977Z,3.37
2022-10-22T06:22:34.943Z,3.53
2022-10-22T06:25:02.897Z,3.73
2022-10-22T06:27:30.857Z,3.30
2022-10-22T06:29:58.847Z,4.83
2022-10-22T06:32:26.813Z,4.33
2022-10-22T06:34:56.219Z,4.20
2022-10-22T06:37:24.191Z,3.10
2022-10-22T06:39:52.159Z,3.60
2022-10-22T06:42:20.127Z,3.07
2022-10-22T06:44:48.098Z,2.80
2022-10-22T06:47:16.071Z,3.13
2022-10-22T06:49:44.032Z,4.47
2022-10-22T06:52:13.953Z,3.40
2022-10-22T06:54:41.922Z,3.00
2022-10-22T06:57:09.863Z,3.10
2022-10-22T06:59:38.272Z,2.97
2022-10-22T07:02:06.242Z,3.00
2022-10-22T07:04:34.297Z,2.70
2022-10-22T07:07:02.284Z,3.40
2022-10-22T07:09:31.657Z,3.93
2022-10-22T07:11:59.758Z,3.37
2022-10-22T07:14:27.768Z,3.30
2022-10-22T07:16:55.797Z,3.17
2022-10-22T07:19:23.768Z,3.53
2022-10-22T07:21:51.740Z,3.83
2022-10-22T07:24:19.706Z,3.70
2022-10-22T07:26:49.071Z,3.63
2022-10-22T07:29:17.082Z,3.67
2022-10-22T07:31:45.051Z,3.30
2022-10-22T07:34:13.054Z,2.47
2022-10-22T07:36:41.017Z,2.73
2022-10-22T07:39:09.064Z,2.97
2022-10-22T07:41:37.034Z,2.37
2022-10-22T07:44:06.433Z,2.50
2022-10-22T07:46:35.328Z,2.83
2022-10-22T07:49:03.298Z,2.90
2022-10-22T07:51:31.266Z,2.60
2022-10-22T07:53:59.226Z,2.67
2022-10-22T07:56:27.207Z,3.80
2022-10-22T07:58:55.198Z,2.80
2022-10-22T08:01:24.585Z,2.60
2022-10-22T08:03:52.853Z,2.83
2022-10-22T08:06:20.827Z,3.13
2022-10-22T08:08:49.520Z,2.80
2022-10-22T08:11:17.550Z,2.23
2022-10-22T08:13:45.968Z,2.17
2022-10-22T08:16:14.351Z,2.70
2022-10-22T08:18:43.709Z,3.30
2022-10-22T08:21:11.707Z,2.47
2022-10-22T08:23:39.763Z,2.53
2022-10-22T08:26:07.748Z,3.00
2022-10-22T08:28:37.226Z,2.47
2022-10-22T08:31:06.154Z,2.20
2022-10-22T08:33:34.101Z,2.67
2022-10-22T08:36:03.445Z,2.43
2022-10-22T08:38:31.759Z,2.37
2022-10-22T08:41:04.585Z,2.77
2022-10-22T08:44:12.263Z,2.70
2022-10-22T08:47:03.196Z,2.77
2022-10-22T08:49:34.302Z,2.90
2022-10-22T08:52:05.587Z,2.80
2022-10-22T08:54:37.823Z,2.93
2022-10-22T08:57:20.385Z,3.00
2022-10-22T08:59:49.308Z,2.33
2022-10-22T09:02:25.561Z,3.20
2022-10-22T09:04:55.435Z,2.73
2022-10-22T09:07:25.412Z,2.50
2022-10-22T09:09:53.375Z,2.00
2022-10-22T09:12:21.324Z,2.10
2022-10-22T09:14:49.322Z,2.40
2022-10-22T09:17:21.298Z,2.80
2022-10-22T09:19:55.412Z,2.70
2022-10-22T09:22:29.219Z,3.00
2022-10-22T09:24:59.366Z,2.50
2022-10-22T09:27:29.143Z,2.47
2022-10-22T09:29:57.153Z,2.33
2022-10-22T09:32:25.107Z,3.03
2022-10-22T09:34:56.726Z,1.97
2022-10-22T09:37:28.116Z,2.20
2022-10-22T09:39:56.447Z,2.70
2022-10-22T09:42:24.474Z,2.30
2022-10-22T09:44:54.079Z,2.20
2022-10-22T09:47:42.714Z,2.40
2022-10-22T09:50:27.927Z,2.10
2022-10-22T09:53:00.533Z,2.43
2022-10-22T09:55:28.487Z,2.43
2022-10-22T09:57:56.691Z,2.60
2022-10-22T10:00:26.068Z,2.20
2022-10-22T10:02:56.476Z,2.70
2022-10-22T10:05:28.087Z,2.40
2022-10-22T10:07:58.250Z,2.37
2022-10-22T10:10:36.068Z,2.40
2022-10-22T10:13:10.358Z,2.10
2022-10-22T10:15:40.015Z,2.30
2022-10-22T10:18:12.239Z,2.10
2022-10-22T10:20:42.071Z,2.00
2022-10-22T10:23:14.998Z,2.50
2022-10-22T10:25:49.868Z,2.43
2022-10-22T10:28:26.539Z,2.57
2022-10-22T10:30:58.484Z,2.77
2022-10-22T10:33:32.893Z,2.50
2022-10-22T10:36:04.801Z,2.10
2022-10-22T10:38:39.498Z,2.40
2022-10-22T10:41:17.923Z,2.63
2022-10-22T10:43:52.529Z,2.70
2022-10-22T10:46:23.975Z,1.90
2022-10-22T10:48:53.151Z,2.70
2022-10-22T10:51:34.429Z,2.20
2022-10-22T10:54:14.937Z,2.63
2022-10-22T10:56:45.903Z,2.47
2022-10-22T10:59:19.686Z,2.50
2022-10-22T11:01:54.938Z,2.23
2022-10-22T11:04:31.231Z,2.17
2022-10-22T11:07:10.875Z,2.40
2022-10-22T11:09:42.402Z,2.60
2022-10-22T11:12:13.854Z,2.50
2022-10-22T11:14:46.350Z,2.00
2022-10-22T11:17:16.046Z,2.67
2022-10-22T11:19:51.562Z,2.10
2022-10-22T11:22:26.785Z,2.63
2022-10-22T11:24:57.679Z,2.70
2022-10-22T11:27:28.392Z,3.10
2022-10-22T11:29:58.854Z,2.00
2022-10-22T11:32:26.850Z,2.70
2022-10-22T11:34:55.873Z,2.40
2022-10-22T11:37:23.844Z,2.58
2022-10-22T11:39:53.650Z,2.63
2022-10-22T11:42:24.055Z,2.53
2022-10-22T11:45:00.922Z,2.50
2022-10-22T11:47:29.771Z,2.40
2022-10-22T11:49:59.602Z,1.92
2022-10-22T11:52:29.395Z,2.15
2022-10-22T11:54:57.941Z,1.77
2022-10-22T11:57:33.119Z,2.63
2022-10-22T12:00:01.518Z,2.17
2022-10-22T12:02:43.151Z,2.40
2022-10-22T12:05:36.168Z,2.20
2022-10-22T12:08:24.171Z,2.67
2022-10-22T12:11:07.466Z,2.73
2022-10-22T12:13:58.557Z,1.90
2022-10-22T12:16:32.493Z,2.57
2022-10-22T12:19:16.218Z,2.13
2022-10-22T12:21:45.695Z,2.60
2022-10-22T12:24:14.702Z,1.87
2022-10-22T12:26:42.664Z,2.43
2022-10-22T12:29:14.227Z,2.07
2022-10-22T12:31:42.918Z,2.67
2022-10-22T12:34:14.651Z,2.20
2022-10-22T12:36:42.622Z,2.40
2022-10-22T12:39:15.574Z,2.00
2022-10-22T12:41:44.030Z,2.07
2022-10-22T12:44:15.103Z,2.90
2022-10-22T12:46:43.692Z,2.10
2022-10-22T12:49:16.052Z,2.63
2022-10-22T12:51:44.296Z,2.40
2022-10-22T12:54:19.951Z,2.77
2022-10-22T12:56:48.378Z,2.20
2022-10-22T12:59:20.508Z,2.50
2022-10-22T13:01:49.635Z,2.20
2022-10-22T13:04:24.431Z,2.50
2022-10-22T13:06:52.842Z,1.83
2022-10-22T13:09:25.141Z,2.60
2022-10-22T13:11:58.293Z,1.80
2022-10-22T13:14:30.718Z,2.60
2022-10-22T13:17:09.298Z,2.30
2022-10-22T13:19:38.782Z,2.23
2022-10-22T13:22:06.766Z,2.73
2022-10-22T13:24:39.163Z,2.10
2022-10-22T13:27:08.990Z,2.20
2022-10-22T13:29:38.360Z,2.60
2022-10-22T13:32:06.588Z,3.30
2022-10-22T13:34:36.362Z,2.47
2022-10-22T13:37:04.325Z,2.20
2022-10-22T13:39:33.542Z,1.90
2022-10-22T13:42:01.513Z,3.20
2022-10-22T13:44:29.466Z,3.53
2022-10-22T13:46:58.814Z,3.23
2022-10-22T13:49:26.768Z,3.00
2022-10-22T13:51:54.767Z,2.40
2022-10-22T13:54:24.076Z,2.77
2022-10-22T13:56:52.802Z,1.83
2022-10-22T13:59:22.997Z,2.10
2022-10-22T14:01:52.015Z,2.13
2022-10-22T14:04:21.317Z,2.33
2022-10-22T14:06:49.326Z,2.70
2022-10-22T14:09:17.425Z,2.73
2022-10-22T14:11:45.486Z,2.97
2022-10-22T14:14:17.150Z,3.47
2022-10-22T14:16:45.261Z,2.90
2022-10-22T14:19:16.379Z,2.20
2022-10-22T14:21:45.836Z,3.27
2022-10-22T14:24:13.810Z,2.20
2022-10-22T14:26:41.802Z,2.87
2022-10-22T14:29:11.073Z,3.47
2022-10-22T14:34:10.860Z,2.27
2022-10-22T14:36:38.896Z,2.40
2022-10-22T14:39:08.219Z,3.40
2022-10-22T14:41:36.259Z,3.33
2022-10-22T14:44:04.243Z,3.00
2022-10-22T14:46:32.208Z,3.87
2022-10-22T14:49:00.180Z,4.00
2022-10-22T14:51:28.197Z,4.10
2022-10-22T14:53:56.246Z,4.70
2022-10-22T14:56:25.582Z,4.77
2022-10-22T14:58:53.836Z,5.00
2022-10-22T15:01:21.829Z,4.33
2022-10-22T15:03:49.806Z,4.20
2022-10-22T15:06:17.929Z,5.63
2022-10-22T15:08:46.073Z,6.30
2022-10-22T15:11:14.194Z,5.53
2022-10-22T15:13:43.711Z,4.30
2022-10-22T15:16:12.207Z,5.40
2022-10-22T15:18:40.158Z,5.57
2022-10-22T15:21:08.980Z,5.80
2022-10-22T15:23:39.293Z,5.93
2022-10-22T15:26:08.547Z,5.53
2022-10-22T15:28:37.421Z,5.40
2022-10-22T15:31:07.256Z,5.70
2022-10-22T15:33:35.500Z,6.93
2022-10-22T15:36:11.054Z,4.83
2022-10-22T15:38:39.040Z,6.27
2022-10-22T15:41:07.819Z,6.47
2022-10-22T15:43:35.796Z,7.90
2022-10-22T15:46:12.623Z,7.50
2022-10-22T15:48:40.789Z,9.43
2022-10-22T15:51:10.510Z,6.47
2022-10-22T15:53:38.453Z,6.50
2022-10-22T15:56:07.023Z,7.37
2022-10-22T15:58:35.000Z,7.07
2022-10-22T16:01:07.346Z,7.07
2022-10-22T16:03:36.837Z,6.87
2022-10-22T16:06:05.467Z,7.13
2022-10-22T16:08:33.502Z,6.60
2022-10-22T16:11:01.509Z,8.60
2022-10-22T16:13:29.479Z,8.03
2022-10-22T16:15:57.464Z,7.97
2022-10-22T16:18:25.484Z,9.70
2022-10-22T16:20:54.792Z,6.60
2022-10-22T16:23:22.806Z,7.70
2022-10-22T16:25:51.031Z,7.40
2022-10-22T16:28:18.959Z,7.43
2022-10-22T16:30:46.912Z,7.50
2022-10-22T16:33:14.890Z,7.27
2022-10-22T16:35:42.975Z,6.77
2022-10-22T16:38:12.315Z,6.53
2022-10-22T16:40:40.304Z,6.50
2022-10-22T16:43:08.387Z,5.13
2022-10-22T16:45:36.350Z,6.87
2022-10-22T16:48:04.382Z,5.00
2022-10-22T16:50:32.330Z,4.83
2022-10-22T16:53:00.274Z,6.20
2022-10-22T16:55:29.607Z,6.73
2022-10-22T16:57:57.619Z,5.93
2022-10-22T17:00:25.716Z,6.50
2022-10-22T17:02:54.187Z,5.40
2022-10-22T17:05:22.505Z,6.57
2022-10-22T17:07:50.569Z,5.40
2022-10-22T17:10:19.781Z,4.70
2022-10-22T17:12:49.263Z,5.17
2022-10-22T17:15:17.350Z,4.20
2022-10-22T17:17:48.451Z,3.70
2022-10-22T17:20:16.387Z,5.10
2022-10-22T17:22:44.356Z,4.77
2022-10-22T17:25:14.197Z,3.73
2022-10-22T17:27:42.566Z,5.20
2022-10-22T17:30:14.122Z,4.60
2022-10-22T17:32:42.128Z,4.30
2022-10-22T17:35:10.447Z,3.67
2022-10-22T17:37:38.427Z,4.87
2022-10-22T17:40:07.233Z,5.47
2022-10-22T17:42:35.373Z,4.03
2022-10-22T17:45:03.365Z,5.33
2022-10-22T17:47:32.672Z,4.70
2022-10-22T17:50:00.633Z,3.63
2022-10-22T17:52:28.561Z,3.80
2022-10-22T17:54:56.531Z,4.23
2022-10-22T17:57:24.510Z,3.80
2022-10-22T17:59:52.571Z,3.87
2022-10-22T18:02:20.545Z,4.03
2022-10-22T18:04:51.603Z,4.13
2022-10-22T18:07:20.828Z,5.07
2022-10-22T18:09:48.998Z,3.80
2022-10-22T18:12:18.143Z,3.83
2022-10-22T18:14:47.056Z,3.40
2022-10-22T18:19:50.683Z,4.00
2022-10-22T18:22:18.687Z,3.67
2022-10-22T18:24:46.650Z,4.00
2022-10-22T18:27:14.587Z,3.13
2022-10-22T18:29:42.557Z,4.40
2022-10-22T18:32:13.113Z,3.20
2022-10-22T18:34:41.413Z,2.90
2022-10-22T18:37:10.737Z,3.17
2022-10-22T18:39:38.680Z,3.80
2022-10-22T18:42:07.309Z,3.80
2022-10-22T18:44:35.709Z,3.40
2022-10-22T18:47:03.679Z,3.57
2022-10-22T18:49:31.602Z,3.53
2022-10-22T18:51:59.546Z,3.70
2022-10-22T18:54:28.930Z,3.60
2022-10-22T18:57:00.496Z,3.43
2022-10-22T18:59:30.045Z,3.33
2022-10-22T19:01:59.598Z,3.67
2022-10-22T19:04:31.047Z,3.40
2022-10-22T19:06:59.218Z,3.30
2022-10-22T19:09:28.937Z,4.13
2022-10-22T19:11:56.949Z,3.03
2022-10-22T19:14:24.902Z,3.37
2022-10-22T19:16:52.906Z,3.63
2022-10-22T19:19:21.607Z,4.77
2022-10-22T19:21:49.563Z,5.10
2022-10-22T19:24:17.961Z,3.73
2022-10-22T19:26:47.718Z,5.23
2022-10-22T19:29:16.178Z,4.10
2022-10-22T19:31:44.503Z,3.60
2022-10-22T19:34:12.475Z,3.73
2022-10-22T19:36:40.421Z,3.80
2022-10-22T19:39:08.960Z,4.47
2022-10-22T19:41:37.008Z,3.97
2022-10-22T19:44:06.354Z,3.33
2022-10-22T19:46:34.323Z,3.17
2022-10-22T19:49:03.202Z,3.47
2022-10-22T19:51:31.794Z,3.83
2022-10-22T19:54:00.357Z,3.97
2022-10-22T19:56:28.410Z,3.77
2022-10-22T19:58:56.386Z,3.40
2022-10-22T20:01:25.889Z,4.63
2022-10-22T20:03:53.961Z,4.90
2022-10-22T20:06:22.130Z,4.70
2022-10-22T20:08:53.723Z,4.20
2022-10-22T20:11:25.086Z,4.63
2022-10-22T20:13:53.045Z,4.43
2022-10-22T20:16:23.129Z,4.27
2022-10-22T20:18:52.638Z,5.30
2022-10-22T20:21:20.663Z,4.43
2022-10-22T20:23:48.709Z,5.17
2022-10-22T20:26:16.699Z,4.20
2022-10-22T20:28:44.643Z,5.17
2022-10-22T20:31:12.873Z,6.87
2022-10-22T20:33:40.838Z,5.33
2022-10-22T20:36:17.856Z,5.73
2022-10-22T20:38:48.150Z,6.00
2022-10-22T20:41:17.264Z,6.57
2022-10-22T20:43:45.550Z,6.20
2022-10-22T20:46:16.316Z,5.97
2022-10-22T20:48:44.257Z,6.20
2022-10-22T20:51:13.594Z,5.53
2022-10-22T20:53:41.640Z,6.13
2022-10-22T20:56:10.853Z,5.90
2022-10-22T20:58:39.239Z,6.33
2022-10-22T21:01:12.187Z,7.00
2022-10-22T21:03:40.479Z,7.10
2022-10-22T21:06:08.910Z,5.73
2022-10-22T21:08:38.288Z,6.70
2022-10-22T21:11:06.529Z,5.47
2022-10-22T21:13:34.497Z,5.73
2022-10-22T21:16:08.382Z,4.90
2022-10-22T21:18:36.353Z,7.00
2022-10-22T21:21:05.087Z,5.80
2022-10-22T21:23:33.109Z,6.07
2022-10-22T21:26:02.517Z,5.43
2022-10-22T21:31:03.450Z,7.20
2022-10-22T21:33:31.386Z,7.10
2022-10-22T21:35:59.426Z,7.07
2022-10-22T21:38:27.404Z,6.90
2022-10-22T21:40:55.489Z,7.13
2022-10-22T21:43:24.874Z,6.63
2022-10-22T21:45:52.885Z,5.43
2022-10-22T21:48:20.879Z,4.67
2022-10-22T21:50:49.975Z,5.90
2022-10-22T21:53:17.931Z,5.17
2022-10-22T21:55:45.881Z,5.97
2022-10-22T21:58:13.834Z,5.70
2022-10-22T22:00:43.169Z,5.60
2022-10-22T22:03:11.163Z,5.87
2022-10-22T22:05:39.527Z,6.40
2022-10-22T22:08:07.826Z,4.90
2022-10-22T22:10:35.848Z,5.60
2022-10-22T22:13:03.816Z,5.80
2022-10-22T22:15:31.840Z,5.83
2022-10-22T22:18:01.192Z,5.40
2022-10-22T22:20:29.766Z,5.37
2022-10-22T22:22:57.777Z,6.67
2022-10-22T22:25:25.779Z,5.70
2022-10-22T22:27:53.814Z,5.30
2022-10-22T22:30:21.839Z,6.83
2022-10-22T22:32:49.801Z,5.67
2022-10-22T22:35:19.354Z,5.20
2022-10-22T22:37:47.420Z,6.13
2022-10-22T22:40:15.532Z,6.00
2022-10-22T22:42:43.624Z,5.23
2022-10-22T22:45:11.606Z,6.50
2022-10-22T22:47:39.783Z,6.10
2022-10-22T22:50:09.085Z,5.37
2022-10-22T22:52:38.631Z,6.20
2022-10-22T22:55:07.867Z,5.70
2022-10-22T22:57:36.341Z,5.20
2022-10-22T23:00:04.446Z,6.23
2022-10-22T23:02:32.453Z,6.03
2022-10-22T23:05:00.412Z,5.80
2022-10-22T23:07:28.387Z,5.10
2022-10-22T23:09:57.739Z,5.87
2022-10-22T23:12:25.822Z,5.17
2022-10-22T23:14:53.825Z,5.87
2022-10-22T23:17:21.783Z,5.10
2022-10-22T23:19:49.815Z,5.10
2022-10-22T23:22:17.744Z,5.90
2022-10-22T23:24:45.793Z,5.30
2022-10-22T23:27:15.192Z,5.70
2022-10-22T23:29:43.142Z,5.13
2022-10-22T23:32:14.405Z,5.03
2022-10-22T23:34:42.363Z,4.40
2022-10-22T23:37:11.308Z,4.80
2022-10-22T23:39:39.271Z,4.50
2022-10-22T23:42:07.217Z,4.80
2022-10-22T23:44:36.661Z,5.47
2022-10-22T23:47:04.662Z,4.40
2022-10-22T23:49:32.835Z,3.77
2022-10-22T23:52:00.778Z,5.80
2022-10-22T23:54:28.750Z,5.53
2022-10-22T23:56:56.745Z,4.50
2022-10-22T23:59:24.729Z,4.27
